Time;durP1;ratioP1;P1;durP2;ratioP2;P2;SDS_P1;SDS_P2;PMS_P1;PMS_P2;Temp;Humidity;BMP_temperature;BMP_pressure;BME280_temperature;BME280_humidity;BME280_pressure;Samples;Min_cycle;Max_cycle;Signal;HPM_P1;HPM_P2
2022/11/16 00:00:59;;;;;;;29.48;21.67;;;;;;;;;;4945533;28;20533;-79
2022/11/16 00:03:25;;;;;;;32.35;22.48;;;;;;;;;;4949875;28;20148;-79
2022/11/16 00:05:55;;;;;;;32.85;23.25;;;;;;;;;;4964923;28;20044;-79
2022/11/16 00:08:20;;;;;;;27.80;19.88;;;;;;;;;;4949608;28;20546;-79
2022/11/16 00:10:46;;;;;;;31.27;21.08;;;;;;;;;;4948532;28;20069;-79
2022/11/16 00:13:11;;;;;;;28.33;20.05;;;;;;;;;;4947072;28;20033;-78
2022/11/16 00:15:37;;;;;;;29.33;19.60;;;;;;;;;;4967227;28;20046;-80
2022/11/16 00:18:02;;;;;;;30.75;21.73;;;;;;;;;;4962839;28;20218;-79
2022/11/16 00:20:28;;;;;;;37.10;23.77;;;;;;;;;;4949718;28;22109;-80
2022/11/16 00:22:56;;;;;;;30.13;22.05;;;;;;;;;;4962460;28;20044;-80
2022/11/16 00:25:27;;;;;;;28.92;23.02;;;;;;;;;;4962687;28;20568;-80
2022/11/16 00:27:52;;;;;;;31.42;23.48;;;;;;;;;;4965100;28;20034;-79
2022/11/16 00:30:18;;;;;;;38.13;25.27;;;;;;;;;;4965646;28;20036;-79
2022/11/16 00:32:46;;;;;;;29.77;21.00;;;;;;;;;;4948575;28;20038;-80
2022/11/16 00:35:12;;;;;;;25.23;19.50;;;;;;;;;;4963984;28;20698;-79
2022/11/16 00:37:38;;;;;;;22.10;18.27;;;;;;;;;;4945418;28;21748;-84
2022/11/16 00:40:04;;;;;;;23.15;19.58;;;;;;;;;;4973729;28;20026;-86
2022/11/16 00:42:32;;;;;;;23.50;20.75;;;;;;;;;;4987025;28;20132;-85
2022/11/16 00:44:57;;;;;;;25.85;21.67;;;;;;;;;;4939122;28;20631;-84
2022/11/16 00:47:23;;;;;;;26.10;21.33;;;;;;;;;;4945863;28;20273;-85
2022/11/16 00:49:52;;;;;;;26.70;22.60;;;;;;;;;;4929313;28;20034;-85
2022/11/16 00:52:18;;;;;;;28.77;20.73;;;;;;;;;;4945574;28;20143;-83
2022/11/16 00:54:43;;;;;;;24.70;20.25;;;;;;;;;;4960746;28;21577;-79
2022/11/16 00:57:15;;;;;;;21.70;18.83;;;;;;;;;;4939568;28;20384;-78
2022/11/16 00:59:43;;;;;;;24.20;21.60;;;;;;;;;;4932009;28;20042;-87
2022/11/16 01:02:15;;;;;;;25.67;21.40;;;;;;;;;;4940385;28;20030;-89
2022/11/16 01:04:46;;;;;;;22.50;19.80;;;;;;;;;;4939898;28;20247;-88
2022/11/16 01:07:15;;;;;;;25.60;22.05;;;;;;;;;;4926443;28;20044;-88
2022/11/16 01:09:43;;;;;;;26.38;21.60;;;;;;;;;;4963434;28;20435;-85
2022/11/16 01:12:30;;;;;;;31.67;23.55;;;;;;;;;;4963371;28;20619;-78
2022/11/16 01:14:55;;;;;;;33.30;23.88;;;;;;;;;;4917160;28;20033;-83
2022/11/16 01:17:22;;;;;;;31.05;23.52;;;;;;;;;;4969960;28;20850;-88
2022/11/16 01:19:47;;;;;;;30.45;21.98;;;;;;;;;;4957433;28;20173;-80
2022/11/16 01:22:13;;;;;;;30.80;23.45;;;;;;;;;;4926699;28;20100;-79
2022/11/16 01:24:41;;;;;;;34.60;25.25;;;;;;;;;;4962688;28;20046;-87
2022/11/16 01:27:06;;;;;;;31.83;24.02;;;;;;;;;;4957700;28;20126;-87
2022/11/16 01:29:32;;;;;;;34.47;25.10;;;;;;;;;;4971480;28;20636;-79
2022/11/16 01:32:00;;;;;;;39.40;26.90;;;;;;;;;;4938890;28;20898;-80
2022/11/16 01:34:26;;;;;;;37.30;27.98;;;;;;;;;;4963896;28;20494;-80
2022/11/16 01:36:51;;;;;;;42.28;28.63;;;;;;;;;;4950330;28;20247;-80
2022/11/16 01:39:16;;;;;;;61.58;45.92;;;;;;;;;;4962106;28;20546;-79
2022/11/16 01:41:42;;;;;;;75.28;52.83;;;;;;;;;;4944096;28;20037;-80
2022/11/16 01:44:28;;;;;;;42.40;31.17;;;;;;;;;;4964522;28;20631;-80
2022/11/16 01:46:57;;;;;;;36.83;28.13;;;;;;;;;;4948607;28;20049;-81
2022/11/16 01:49:24;;;;;;;33.13;26.02;;;;;;;;;;4942272;28;20061;-82
2022/11/16 01:51:55;;;;;;;32.72;23.13;;;;;;;;;;4950609;28;20260;-81
2022/11/16 01:54:28;;;;;;;27.17;17.42;;;;;;;;;;4919886;28;20046;-80
2022/11/16 01:56:54;;;;;;;15.02;11.15;;;;;;;;;;4948406;28;21957;-82
2022/11/16 01:59:19;;;;;;;10.68;7.43;;;;;;;;;;4944159;28;20034;-80
2022/11/16 02:01:47;;;;;;;12.68;7.72;;;;;;;;;;4891974;28;20778;-81
2022/11/16 02:04:13;;;;;;;12.98;6.50;;;;;;;;;;4947892;28;20354;-79
2022/11/16 02:07:01;;;;;;;10.07;5.35;;;;;;;;;;4918622;28;20681;-81
2022/11/16 02:09:53;;;;;;;11.10;3.25;;;;;;;;;;4934870;28;20169;-81
2022/11/16 02:12:39;;;;;;;19.38;2.67;;;;;;;;;;4954173;28;20040;-81
2022/11/16 02:15:14;;;;;;;13.05;1.80;;;;;;;;;;4962437;28;20038;-80
2022/11/16 02:17:42;;;;;;;9.20;1.40;;;;;;;;;;4945429;28;20039;-81
2022/11/16 02:20:23;;;;;;;6.07;1.10;;;;;;;;;;4922134;28;20038;-79
2022/11/16 02:22:52;;;;;;;10.77;2.28;;;;;;;;;;4899741;28;20573;-80
2022/11/16 02:25:23;;;;;;;9.45;2.58;;;;;;;;;;4954352;28;20033;-81
2022/11/16 02:28:09;;;;;;;11.55;2.03;;;;;;;;;;4960125;28;20560;-81
2022/11/16 02:30:40;;;;;;;3.05;1.20;;;;;;;;;;4931953;28;20187;-81
2022/11/16 02:33:08;;;;;;;5.38;0.95;;;;;;;;;;4952717;28;20030;-81
2022/11/16 02:35:45;;;;;;;6.38;1.00;;;;;;;;;;4964394;28;20045;-86
2022/11/16 02:38:13;;;;;;;4.07;0.90;;;;;;;;;;4940234;28;20034;-80
2022/11/16 02:40:42;;;;;;;4.50;1.17;;;;;;;;;;4933248;28;20038;-81
2022/11/16 02:43:12;;;;;;;10.63;2.65;;;;;;;;;;4950309;28;20161;-81
2022/11/16 02:45:41;;;;;;;19.63;9.30;;;;;;;;;;4962863;28;22885;-81
2022/11/16 02:48:10;;;;;;;12.55;7.72;;;;;;;;;;4963838;28;20034;-80
2022/11/16 02:50:37;;;;;;;11.57;3.78;;;;;;;;;;4975563;28;20038;-84
2022/11/16 02:53:02;;;;;;;10.20;3.05;;;;;;;;;;4954240;28;20612;-80
2022/11/16 02:55:32;;;;;;;15.40;7.40;;;;;;;;;;4965152;28;20081;-80
2022/11/16 02:58:00;;;;;;;19.08;9.13;;;;;;;;;;4964899;28;20074;-81
2022/11/16 03:00:28;;;;;;;21.77;7.70;;;;;;;;;;4959682;28;20046;-85
2022/11/16 03:03:05;;;;;;;16.77;4.33;;;;;;;;;;4958876;28;20192;-84
2022/11/16 03:05:51;;;;;;;12.25;3.80;;;;;;;;;;4979887;28;20279;-84
2022/11/16 03:08:23;;;;;;;11.88;4.93;;;;;;;;;;4943616;28;21929;-81
2022/11/16 03:13:36;;;;;;;17.90;8.95;;;;;;;;;;4913361;28;20233;-81
2022/11/16 03:16:06;;;;;;;20.13;8.40;;;;;;;;;;4959129;28;20204;-81
2022/11/16 03:18:34;;;;;;;15.38;8.10;;;;;;;;;;4938851;28;20038;-81
2022/11/16 03:21:05;;;;;;;23.42;8.10;;;;;;;;;;4962999;28;22313;-81
2022/11/16 03:23:33;;;;;;;19.75;11.38;;;;;;;;;;4950841;28;20885;-81
2022/11/16 03:25:59;;;;;;;22.77;12.57;;;;;;;;;;4963902;28;20276;-81
2022/11/16 03:28:32;;;;;;;21.90;12.73;;;;;;;;;;4953729;28;20069;-81
2022/11/16 03:30:59;;;;;;;20.60;11.55;;;;;;;;;;4963062;28;20042;-81
2022/11/16 03:33:28;;;;;;;25.63;15.27;;;;;;;;;;4966230;28;20042;-81
2022/11/16 03:35:59;;;;;;;25.13;14.45;;;;;;;;;;4944718;28;20164;-80
2022/11/16 03:38:25;;;;;;;;;;;;;;;;;;4967180;28;20081;-81
2022/11/16 03:40:54;;;;;;;34.25;24.63;;;;;;;;;;4928743;28;19913;-81
2022/11/16 03:43:19;;;;;;;22.98;14.02;;;;;;;;;;4955285;28;20782;-81
2022/11/16 03:45:45;;;;;;;19.55;13.20;;;;;;;;;;4954210;28;20187;-81
2022/11/16 03:48:11;;;;;;;22.10;17.23;;;;;;;;;;4963657;28;20042;-81
2022/11/16 03:50:38;;;;;;;26.63;18.70;;;;;;;;;;4963073;28;20038;-81
2022/11/16 03:53:04;;;;;;;23.90;15.60;;;;;;;;;;4912192;28;20039;-79
2022/11/16 03:55:31;;;;;;;22.73;15.45;;;;;;;;;;4932241;28;20132;-81
2022/11/16 03:58:09;;;;;;;22.70;14.02;;;;;;;;;;4923180;28;20450;-79
2022/11/16 04:00:41;;;;;;;24.30;14.38;;;;;;;;;;4892636;28;21092;-80
2022/11/16 04:03:06;;;;;;;22.98;14.35;;;;;;;;;;4954208;28;20031;-80
2022/11/16 04:25:34;;;;;;;35.63;19.48;;;;;;;;;;4946865;28;20044;-81
2022/11/16 04:28:12;;;;;;;35.13;17.60;;;;;;;;;;4931598;28;20099;-80
2022/11/16 04:38:56;;;;;;;24.42;15.23;;;;;;;;;;4945003;28;20751;-80
2022/11/16 04:44:05;;;;;;;30.23;15.02;;;;;;;;;;4950388;28;20277;-80
2022/11/16 04:49:15;;;;;;;27.52;13.63;;;;;;;;;;4962740;28;20038;-81
2022/11/16 04:51:40;;;;;;;22.50;12.63;;;;;;;;;;4950267;28;20025;-80
2022/11/16 04:54:08;;;;;;;24.00;12.88;;;;;;;;;;4951207;28;20356;-80
2022/11/16 04:56:34;;;;;;;23.30;13.68;;;;;;;;;;4963416;28;20050;-80
2022/11/16 04:59:01;;;;;;;23.50;14.82;;;;;;;;;;4949677;28;20314;-80
2022/11/16 05:04:11;;;;;;;26.88;16.88;;;;;;;;;;4965576;28;20038;-80
2022/11/16 05:06:37;;;;;;;27.42;13.65;;;;;;;;;;4974878;28;20112;-86
2022/11/16 05:09:02;;;;;;;26.25;14.95;;;;;;;;;;4958806;28;20049;-85
2022/11/16 05:11:30;;;;;;;24.52;14.95;;;;;;;;;;4964544;28;20506;-85
2022/11/16 05:13:55;;;;;;;26.58;16.02;;;;;;;;;;4963541;28;20066;-84
2022/11/16 05:16:31;;;;;;;28.25;15.73;;;;;;;;;;4964385;28;20645;-84
2022/11/16 05:21:46;;;;;;;27.33;16.50;;;;;;;;;;4978934;28;20486;-85
2022/11/16 05:26:56;;;;;;;26.83;16.25;;;;;;;;;;4977490;28;20026;-86
2022/11/16 05:29:30;;;;;;;28.45;17.58;;;;;;;;;;4987933;28;20088;-87
2022/11/16 05:31:57;;;;;;;25.90;16.85;;;;;;;;;;4974621;28;20385;-86
2022/11/16 05:34:41;;;;;;;29.75;18.15;;;;;;;;;;4968499;28;20026;-84
2022/11/16 05:37:16;;;;;;;31.33;17.92;;;;;;;;;;5003298;28;20041;-85
2022/11/16 05:39:47;;;;;;;34.72;17.92;;;;;;;;;;4954577;28;20040;-83
2022/11/16 05:42:18;;;;;;;33.22;16.67;;;;;;;;;;4978284;28;20030;-86
2022/11/16 05:44:53;;;;;;;31.83;16.90;;;;;;;;;;4944018;28;20030;-84
2022/11/16 05:47:22;;;;;;;29.02;16.95;;;;;;;;;;4966867;28;20026;-86
2022/11/16 05:49:48;;;;;;;34.38;20.85;;;;;;;;;;4983184;28;20566;-87
2022/11/16 05:52:16;;;;;;;40.63;23.30;;;;;;;;;;4924575;28;20026;-86
2022/11/16 05:54:47;;;;;;;34.25;19.50;;;;;;;;;;4951142;28;20045;-86
2022/11/16 05:57:14;;;;;;;31.30;22.02;;;;;;;;;;4950167;28;20150;-87
2022/11/16 05:59:42;;;;;;;31.20;20.63;;;;;;;;;;4965670;28;20033;-87
2022/11/16 06:02:17;;;;;;;44.13;27.17;;;;;;;;;;4931087;28;20050;-87
2022/11/16 06:15:07;;;;;;;40.55;25.23;;;;;;;;;;4880980;28;20072;-86
2022/11/16 06:17:42;;;;;;;33.78;23.38;;;;;;;;;;4913850;28;20021;-87
2022/11/16 06:20:25;;;;;;;45.50;30.45;;;;;;;;;;4863643;28;20134;-90
2022/11/16 06:22:51;;;;;;;50.00;33.97;;;;;;;;;;4910306;28;20035;-78
2022/11/16 06:25:16;;;;;;;48.55;33.60;;;;;;;;;;4947770;28;20387;-80
2022/11/16 06:27:44;;;;;;;39.78;24.63;;;;;;;;;;4907645;28;20037;-77
2022/11/16 06:30:09;;;;;;;38.33;24.20;;;;;;;;;;5010350;28;20026;-88
2022/11/16 06:32:37;;;;;;;41.65;26.20;;;;;;;;;;4951331;28;20041;-79
2022/11/16 06:35:03;;;;;;;43.15;29.15;;;;;;;;;;4977389;28;20030;-88
2022/11/16 06:37:29;;;;;;;50.85;33.30;;;;;;;;;;4945054;28;20049;-78
2022/11/16 06:39:55;;;;;;;49.88;32.90;;;;;;;;;;4938856;28;20372;-78
2022/11/16 06:45:12;;;;;;;49.88;29.23;;;;;;;;;;4966248;28;20578;-78
2022/11/16 06:47:37;;;;;;;52.83;30.85;;;;;;;;;;4956111;28;20030;-78
2022/11/16 06:50:05;;;;;;;42.53;29.60;;;;;;;;;;4932296;28;22155;-78
2022/11/16 06:52:31;;;;;;;46.22;27.17;;;;;;;;;;4934905;28;20133;-79
2022/11/16 06:55:02;;;;;;;45.05;22.35;;;;;;;;;;4947086;28;20037;-89
2022/11/16 06:57:27;;;;;;;37.83;23.40;;;;;;;;;;4999641;28;20038;-87
2022/11/16 06:59:53;;;;;;;42.83;26.50;;;;;;;;;;4984877;28;20041;-88
2022/11/16 07:02:20;;;;;;;42.13;24.63;;;;;;;;;;4978273;28;20391;-77
2022/11/16 07:04:45;;;;;;;42.65;24.38;;;;;;;;;;4978025;28;20030;-86
2022/11/16 07:07:13;;;;;;;33.10;16.88;;;;;;;;;;4969259;28;20030;-78
2022/11/16 07:09:39;;;;;;;31.83;16.30;;;;;;;;;;4965581;28;20029;-89
2022/11/16 07:12:04;;;;;;;47.03;25.88;;;;;;;;;;4982781;28;20037;-85
2022/11/16 07:14:29;;;;;;;47.70;28.23;;;;;;;;;;5000587;28;20018;-86
2022/11/16 07:16:57;;;;;;;46.88;23.60;;;;;;;;;;4999080;28;20037;-87
2022/11/16 07:19:25;;;;;;;39.20;23.08;;;;;;;;;;4968998;28;20025;-84
2022/11/16 07:21:50;;;;;;;32.47;17.60;;;;;;;;;;4979996;28;20049;-87
2022/11/16 07:24:16;;;;;;;42.45;22.77;;;;;;;;;;4988018;28;20054;-83
2022/11/16 07:26:43;;;;;;;32.47;17.73;;;;;;;;;;5003799;28;20526;-85
2022/11/16 07:29:09;;;;;;;27.23;13.63;;;;;;;;;;4986272;28;20033;-83
2022/11/16 07:31:37;;;;;;;34.42;15.15;;;;;;;;;;4951208;28;21736;-78
2022/11/16 07:34:02;;;;;;;32.60;13.93;;;;;;;;;;4929924;28;20037;-77
2022/11/16 07:36:28;;;;;;;27.05;12.15;;;;;;;;;;4918119;28;20739;-78
2022/11/16 07:38:54;;;;;;;33.45;15.10;;;;;;;;;;4962324;28;20690;-77
2022/11/16 07:41:20;;;;;;;36.90;18.05;;;;;;;;;;4961712;28;20074;-78
2022/11/16 07:43:45;;;;;;;26.92;13.90;;;;;;;;;;4936808;28;20042;-77
2022/11/16 07:46:15;;;;;;;30.30;14.35;;;;;;;;;;4961451;28;20504;-84
2022/11/16 07:48:41;;;;;;;32.28;14.23;;;;;;;;;;4990275;28;20475;-81
2022/11/16 07:51:10;;;;;;;31.52;13.30;;;;;;;;;;4988413;28;20134;-83
2022/11/16 07:53:35;;;;;;;25.05;14.38;;;;;;;;;;4980427;28;20656;-77
2022/11/16 07:56:01;;;;;;;41.10;19.02;;;;;;;;;;4969894;28;20054;-79
2022/11/16 07:58:29;;;;;;;34.22;16.73;;;;;;;;;;4976323;28;20076;-78
2022/11/16 08:01:05;;;;;;;44.22;21.52;;;;;;;;;;4967971;28;20309;-80
2022/11/16 08:03:31;;;;;;;33.20;18.42;;;;;;;;;;4977811;28;20306;-78
2022/11/16 08:06:06;;;;;;;50.17;24.33;;;;;;;;;;4961174;28;20707;-80
2022/11/16 08:08:32;;;;;;;45.03;25.15;;;;;;;;;;4965786;28;20026;-79
2022/11/16 08:11:01;;;;;;;49.85;27.30;;;;;;;;;;4972337;28;20033;-80
2022/11/16 08:13:32;;;;;;;51.88;27.10;;;;;;;;;;4981916;28;20278;-77
2022/11/16 08:16:01;;;;;;;53.83;23.95;;;;;;;;;;4984713;28;20472;-78
2022/11/16 08:18:32;;;;;;;43.10;25.92;;;;;;;;;;4996778;28;20077;-80
2022/11/16 08:20:58;;;;;;;43.05;22.73;;;;;;;;;;4964399;28;20123;-77
2022/11/16 08:23:24;;;;;;;44.95;26.35;;;;;;;;;;4945977;28;20037;-77
2022/11/16 08:25:49;;;;;;;50.03;23.63;;;;;;;;;;4959823;28;20298;-78
2022/11/16 08:28:15;;;;;;;42.90;23.95;;;;;;;;;;4963670;28;20517;-78
2022/11/16 08:30:42;;;;;;;39.78;19.02;;;;;;;;;;4943291;28;20060;-78
2022/11/16 08:33:08;;;;;;;43.35;20.15;;;;;;;;;;4962048;28;20030;-78
2022/11/16 08:35:34;;;;;;;36.28;17.60;;;;;;;;;;4995931;28;20091;-81
2022/11/16 08:38:02;;;;;;;40.92;18.60;;;;;;;;;;5006139;28;20035;-81
2022/11/16 08:40:32;;;;;;;44.20;19.73;;;;;;;;;;4955684;28;20144;-77
2022/11/16 08:42:57;;;;;;;44.55;20.67;;;;;;;;;;4958479;28;20062;-77
2022/11/16 08:45:23;;;;;;;53.25;21.17;;;;;;;;;;4963996;28;20041;-77
2022/11/16 08:47:51;;;;;;;25.00;12.65;;;;;;;;;;4959358;28;20394;-78
2022/11/16 08:50:17;;;;;;;23.98;8.77;;;;;;;;;;4962599;28;20128;-77
2022/11/16 08:52:46;;;;;;;25.98;6.20;;;;;;;;;;4955050;28;20215;-77
2022/11/16 08:55:12;;;;;;;22.08;7.00;;;;;;;;;;4949326;28;20516;-77
2022/11/16 08:57:38;;;;;;;22.27;7.10;;;;;;;;;;4963795;28;20135;-77
2022/11/16 09:00:04;;;;;;;30.45;7.88;;;;;;;;;;4968716;28;20038;-77
2022/11/16 09:02:29;;;;;;;16.23;6.60;;;;;;;;;;4973645;28;20030;-81
2022/11/16 09:04:54;;;;;;;19.42;7.30;;;;;;;;;;4962574;28;20287;-82
2022/11/16 09:07:20;;;;;;;19.05;6.95;;;;;;;;;;5003643;28;20077;-82
2022/11/16 09:09:47;;;;;;;15.07;6.05;;;;;;;;;;4980857;28;20120;-81
2022/11/16 09:12:13;;;;;;;20.55;6.78;;;;;;;;;;5001558;28;20026;-81
2022/11/16 09:14:39;;;;;;;16.52;6.07;;;;;;;;;;5004442;28;20052;-82
2022/11/16 09:17:04;;;;;;;20.85;6.93;;;;;;;;;;4969781;28;20501;-77
2022/11/16 09:19:30;;;;;;;28.73;7.63;;;;;;;;;;4964457;28;20037;-77
2022/11/16 09:21:57;;;;;;;16.92;5.68;;;;;;;;;;4984743;28;20045;-82
2022/11/16 09:24:23;;;;;;;26.73;8.80;;;;;;;;;;4994317;28;20034;-82
2022/11/16 09:26:56;;;;;;;27.77;8.40;;;;;;;;;;4987692;28;20041;-81
2022/11/16 09:29:21;;;;;;;21.98;6.28;;;;;;;;;;4977183;28;20039;-81
2022/11/16 09:31:50;;;;;;;20.65;6.45;;;;;;;;;;4962742;28;21914;-77
2022/11/16 09:34:19;;;;;;;24.52;6.53;;;;;;;;;;4972768;28;20048;-80
2022/11/16 09:36:44;;;;;;;17.20;6.15;;;;;;;;;;4971573;28;20119;-79
2022/11/16 09:39:11;;;;;;;15.07;5.72;;;;;;;;;;4953590;28;20037;-80
2022/11/16 09:41:49;;;;;;;16.48;5.90;;;;;;;;;;4987858;28;20045;-80
2022/11/16 09:44:34;;;;;;;20.77;7.45;;;;;;;;;;4979711;28;20744;-78
2022/11/16 09:47:00;;;;;;;30.50;9.07;;;;;;;;;;4973242;28;20039;-80
2022/11/16 09:49:34;;;;;;;22.30;7.40;;;;;;;;;;4985736;28;20291;-80
2022/11/16 09:52:02;;;;;;;25.08;7.43;;;;;;;;;;4968294;28;20677;-79
2022/11/16 09:54:33;;;;;;;25.83;7.72;;;;;;;;;;4907357;28;20094;-77
2022/11/16 09:57:04;;;;;;;21.15;6.60;;;;;;;;;;4916768;28;20058;-78
2022/11/16 09:59:35;;;;;;;28.73;8.05;;;;;;;;;;4968794;28;20808;-80
2022/11/16 10:02:19;;;;;;;21.40;7.63;;;;;;;;;;4971127;28;20042;-80
2022/11/16 10:04:54;;;;;;;20.27;7.78;;;;;;;;;;4946486;28;20422;-80
2022/11/16 10:07:23;;;;;;;18.25;6.57;;;;;;;;;;4939121;28;20112;-79
2022/11/16 10:09:48;;;;;;;21.63;6.68;;;;;;;;;;4941078;28;20610;-79
2022/11/16 10:12:13;;;;;;;15.27;6.15;;;;;;;;;;4930583;28;20073;-79
2022/11/16 10:14:51;;;;;;;18.67;6.90;;;;;;;;;;4951533;28;20495;-79
2022/11/16 10:17:22;;;;;;;21.83;7.50;;;;;;;;;;4938739;28;20566;-79
2022/11/16 10:19:47;;;;;;;18.13;6.53;;;;;;;;;;4970069;28;20068;-83
2022/11/16 10:22:33;;;;;;;18.23;7.05;;;;;;;;;;4956037;28;20125;-80
2022/11/16 10:24:58;;;;;;;28.05;11.07;;;;;;;;;;4951376;28;20034;-79
2022/11/16 10:27:23;;;;;;;20.25;8.35;;;;;;;;;;4915034;28;20823;-79
2022/11/16 10:29:58;;;;;;;18.30;7.65;;;;;;;;;;4970036;28;20404;-81
2022/11/16 10:32:27;;;;;;;14.85;8.00;;;;;;;;;;4923482;28;20634;-79
2022/11/16 10:35:07;;;;;;;19.00;8.57;;;;;;;;;;4951828;28;20170;-79
2022/11/16 10:37:35;;;;;;;20.95;8.32;;;;;;;;;;4948437;28;20042;-79
2022/11/16 10:40:10;;;;;;;13.82;7.30;;;;;;;;;;4952194;28;20062;-78
2022/11/16 10:42:38;;;;;;;17.73;8.00;;;;;;;;;;4939546;28;20267;-78
2022/11/16 10:45:11;;;;;;;21.45;8.43;;;;;;;;;;4949282;28;20037;-78
2022/11/16 10:47:49;;;;;;;19.08;8.32;;;;;;;;;;4952563;28;20311;-78
2022/11/16 10:50:20;;;;;;;22.92;9.57;;;;;;;;;;4930367;28;20042;-77
2022/11/16 10:52:45;;;;;;;23.85;9.55;;;;;;;;;;4920157;28;20428;-78
2022/11/16 10:55:14;;;;;;;20.48;9.25;;;;;;;;;;4947403;28;20034;-77
2022/11/16 10:58:00;;;;;;;18.83;9.13;;;;;;;;;;4968326;28;20061;-78
2022/11/16 11:00:40;;;;;;;22.30;9.25;;;;;;;;;;4961536;28;20026;-79
2022/11/16 11:03:06;;;;;;;22.27;8.57;;;;;;;;;;4964948;28;20028;-77
2022/11/16 11:05:33;;;;;;;21.75;9.15;;;;;;;;;;4981835;28;20034;-79
2022/11/16 11:08:06;;;;;;;14.82;8.90;;;;;;;;;;4968462;28;20044;-79
2022/11/16 11:10:39;;;;;;;24.20;10.82;;;;;;;;;;4950469;28;20033;-79
2022/11/16 11:13:14;;;;;;;21.48;10.32;;;;;;;;;;4965867;28;20501;-78
2022/11/16 11:15:40;;;;;;;17.40;10.05;;;;;;;;;;4984934;28;20303;-79
2022/11/16 11:18:18;;;;;;;22.15;9.25;;;;;;;;;;4965953;28;20517;-79
2022/11/16 11:20:49;;;;;;;22.38;9.82;;;;;;;;;;4966583;28;20061;-79
2022/11/16 11:23:19;;;;;;;21.65;10.15;;;;;;;;;;4954062;28;20450;-79
2022/11/16 11:25:51;;;;;;;21.10;10.02;;;;;;;;;;4966442;28;20097;-78
2022/11/16 11:28:22;;;;;;;22.80;9.93;;;;;;;;;;4973754;28;20666;-80
2022/11/16 11:31:03;;;;;;;18.42;10.43;;;;;;;;;;4981233;28;20140;-78
2022/11/16 11:33:31;;;;;;;21.65;9.52;;;;;;;;;;4981075;28;20042;-78
2022/11/16 11:36:09;;;;;;;25.70;9.95;;;;;;;;;;4954279;28;20046;-79
2022/11/16 11:38:53;;;;;;;18.15;9.18;;;;;;;;;;4952136;28;20431;-79
2022/11/16 11:41:20;;;;;;;18.70;9.40;;;;;;;;;;4957558;28;20342;-78
2022/11/16 11:44:02;;;;;;;16.67;8.60;;;;;;;;;;4938718;28;20045;-78
2022/11/16 11:46:36;;;;;;;16.23;8.00;;;;;;;;;;4977494;28;20069;-78
2022/11/16 11:49:20;;;;;;;17.20;7.03;;;;;;;;;;4965952;28;20033;-78
2022/11/16 11:51:46;;;;;;;17.70;7.85;;;;;;;;;;4980377;28;20082;-79
2022/11/16 11:54:17;;;;;;;15.93;6.80;;;;;;;;;;4983160;28;20105;-78
2022/11/16 11:56:45;;;;;;;17.40;6.80;;;;;;;;;;4984885;28;20798;-79
2022/11/16 11:59:16;;;;;;;15.45;6.28;;;;;;;;;;4974666;28;20082;-79
2022/11/16 12:01:46;;;;;;;;;;;;;;;;;;4983418;28;20116;-79
2022/11/16 12:04:18;;;;;;;16.63;6.25;;;;;;;;;;4966777;28;20475;-79
2022/11/16 12:07:04;;;;;;;15.98;6.38;;;;;;;;;;4970303;28;20030;-79
2022/11/16 12:09:36;;;;;;;19.38;6.68;;;;;;;;;;4976487;28;20052;-75
2022/11/16 12:12:28;;;;;;;13.93;6.03;;;;;;;;;;4971676;28;20034;-78
2022/11/16 12:14:56;;;;;;;21.02;6.13;;;;;;;;;;4964798;28;20598;-78
2022/11/16 12:17:26;;;;;;;16.95;5.68;;;;;;;;;;4954408;28;20763;-78
2022/11/16 12:20:00;;;;;;;24.95;6.53;;;;;;;;;;4965933;28;21210;-77
2022/11/16 12:22:28;;;;;;;14.82;6.13;;;;;;;;;;4949624;28;20407;-78
2022/11/16 12:25:29;;;;;;;16.55;4.72;;;;;;;;;;4970837;28;20871;-77
2022/11/16 12:28:10;;;;;;;13.77;5.20;;;;;;;;;;4911795;28;20896;-78
2022/11/16 12:30:44;;;;;;;15.85;4.93;;;;;;;;;;4967438;28;20560;-78
2022/11/16 12:33:21;;;;;;;16.23;5.57;;;;;;;;;;4971912;28;20550;-78
2022/11/16 12:35:50;;;;;;;18.80;5.93;;;;;;;;;;4971469;28;20274;-78
2022/11/16 12:38:23;;;;;;;18.77;5.97;;;;;;;;;;4971076;28;20921;-78
2022/11/16 12:41:07;;;;;;;16.48;6.10;;;;;;;;;;4974535;28;20034;-77
2022/11/16 12:43:37;;;;;;;13.65;5.72;;;;;;;;;;4963984;28;20033;-78
2022/11/16 12:46:21;;;;;;;23.55;6.60;;;;;;;;;;4975229;28;20180;-77
2022/11/16 12:49:06;;;;;;;11.90;5.00;;;;;;;;;;4992850;28;20037;-77
2022/11/16 12:51:40;;;;;;;21.73;8.15;;;;;;;;;;4991397;28;20049;-76
2022/11/16 12:54:21;;;;;;;16.75;6.63;;;;;;;;;;4987890;28;20320;-78
2022/11/16 12:57:02;;;;;;;16.40;5.72;;;;;;;;;;4998361;28;21997;-76
2022/11/16 12:59:36;;;;;;;17.33;5.20;;;;;;;;;;4985432;28;20034;-80
2022/11/16 13:02:17;;;;;;;18.55;5.28;;;;;;;;;;5000347;28;20042;-79
2022/11/16 13:04:51;;;;;;;11.50;4.90;;;;;;;;;;4962807;28;20049;-77
2022/11/16 13:07:28;;;;;;;12.05;5.43;;;;;;;;;;4983560;28;20394;-77
2022/11/16 13:09:58;;;;;;;15.20;5.03;;;;;;;;;;4969911;28;20240;-83
2022/11/16 13:12:29;;;;;;;17.20;5.20;;;;;;;;;;4979298;28;20071;-75
2022/11/16 13:14:56;;;;;;;9.73;4.13;;;;;;;;;;4978483;28;20111;-75
2022/11/16 13:17:30;;;;;;;17.35;4.95;;;;;;;;;;4982022;28;20069;-75
2022/11/16 13:20:16;;;;;;;19.80;5.00;;;;;;;;;;4980013;28;20667;-78
2022/11/16 13:22:45;;;;;;;9.18;4.00;;;;;;;;;;4972817;28;20052;-79
2022/11/16 13:25:24;;;;;;;12.52;3.70;;;;;;;;;;4987084;28;20537;-75
2022/11/16 13:27:54;;;;;;;12.35;3.88;;;;;;;;;;4984440;28;20512;-79
2022/11/16 13:30:26;;;;;;;13.32;4.45;;;;;;;;;;4968618;28;20060;-78
2022/11/16 13:33:10;;;;;;;16.25;4.60;;;;;;;;;;4991714;28;20037;-78
2022/11/16 13:35:38;;;;;;;14.45;7.50;;;;;;;;;;4949247;28;20042;-78
2022/11/16 13:38:07;;;;;;;17.80;6.88;;;;;;;;;;4967737;28;20037;-80
2022/11/16 13:40:35;;;;;;;19.55;6.60;;;;;;;;;;4991065;28;20435;-77
2022/11/16 13:43:02;;;;;;;14.07;6.82;;;;;;;;;;4972109;28;20034;-81
2022/11/16 13:45:31;;;;;;;18.73;7.05;;;;;;;;;;4976841;28;20026;-77
2022/11/16 13:48:02;;;;;;;15.85;5.47;;;;;;;;;;4966665;28;20035;-78
2022/11/16 13:50:38;;;;;;;15.25;5.30;;;;;;;;;;4983727;28;20031;-78
2022/11/16 13:53:10;;;;;;;14.32;5.25;;;;;;;;;;4991304;28;20030;-78
2022/11/16 13:55:43;;;;;;;11.20;4.63;;;;;;;;;;4992534;28;20549;-77
2022/11/16 13:58:18;;;;;;;15.55;4.63;;;;;;;;;;4991327;28;20398;-77
2022/11/16 14:00:52;;;;;;;12.48;3.80;;;;;;;;;;4993404;28;20584;-78
2022/11/16 14:03:17;;;;;;;15.55;5.07;;;;;;;;;;4996161;28;20056;-77
2022/11/16 14:05:44;;;;;;;18.15;5.55;;;;;;;;;;4998556;28;20140;-78
2022/11/16 14:08:19;;;;;;;15.05;3.75;;;;;;;;;;4983643;28;20042;-77
2022/11/16 14:10:47;;;;;;;10.75;4.55;;;;;;;;;;4978802;28;20038;-77
2022/11/16 14:13:36;;;;;;;12.00;3.63;;;;;;;;;;4950837;28;20084;-76
2022/11/16 14:16:13;;;;;;;15.20;3.80;;;;;;;;;;4981182;28;20045;-79
2022/11/16 14:18:42;;;;;;;13.80;3.83;;;;;;;;;;4976728;28;20108;-77
2022/11/16 14:21:26;;;;;;;16.60;3.50;;;;;;;;;;4986520;28;20030;-76
2022/11/16 14:23:57;;;;;;;12.45;3.55;;;;;;;;;;4985542;28;20041;-79
2022/11/16 14:26:28;;;;;;;8.87;3.37;;;;;;;;;;4991379;28;20044;-79
2022/11/16 14:29:02;;;;;;;15.43;3.72;;;;;;;;;;4974428;28;20079;-76
2022/11/16 14:31:43;;;;;;;15.63;3.45;;;;;;;;;;4993327;28;20044;-77
2022/11/16 14:34:16;;;;;;;10.80;3.28;;;;;;;;;;4989409;28;20037;-77
2022/11/16 14:36:45;;;;;;;13.63;3.80;;;;;;;;;;4983777;28;20085;-75
2022/11/16 14:39:14;;;;;;;12.77;3.42;;;;;;;;;;4981470;28;20509;-76
2022/11/16 14:41:42;;;;;;;14.05;3.05;;;;;;;;;;4992282;28;20034;-76
2022/11/16 14:44:08;;;;;;;10.48;2.97;;;;;;;;;;4978969;28;20351;-75
2022/11/16 14:46:45;;;;;;;14.18;3.42;;;;;;;;;;4983341;27;20139;-67
2022/11/16 14:49:13;;;;;;;16.20;5.03;;;;;;;;;;4978500;28;20042;-67
2022/11/16 14:51:43;;;;;;;14.07;4.18;;;;;;;;;;4978114;28;20119;-66
2022/11/16 14:54:15;;;;;;;13.75;4.03;;;;;;;;;;4976473;28;20120;-66
2022/11/16 14:56:57;;;;;;;11.48;4.10;;;;;;;;;;4996665;28;20140;-64
2022/11/16 14:59:23;;;;;;;13.00;3.47;;;;;;;;;;4995026;28;20516;-65
2022/11/16 15:01:49;;;;;;;12.45;3.95;;;;;;;;;;4997457;28;20049;-64
2022/11/16 15:04:20;;;;;;;15.70;3.85;;;;;;;;;;4993990;28;20156;-65
2022/11/16 15:06:51;;;;;;;14.20;3.40;;;;;;;;;;4993751;28;20115;-64
2022/11/16 15:09:28;;;;;;;13.40;3.53;;;;;;;;;;4989251;28;20048;-64
2022/11/16 15:14:55;;;;;;;17.98;6.70;;;;;;;;;;4997449;28;20851;-65
2022/11/16 15:17:23;;;;;;;17.73;6.72;;;;;;;;;;4991411;28;20034;-65
2022/11/16 15:20:02;;;;;;;24.77;12.05;;;;;;;;;;4994774;28;20030;-65
2022/11/16 15:22:28;;;;;;;15.38;4.50;;;;;;;;;;4995375;28;20103;-65
2022/11/16 15:24:55;;;;;;;18.73;6.00;;;;;;;;;;4993329;28;20985;-62
2022/11/16 15:27:36;;;;;;;17.13;5.00;;;;;;;;;;4995374;28;20037;-65
2022/11/16 15:30:12;;;;;;;10.50;3.67;;;;;;;;;;4993099;28;20099;-67
2022/11/16 15:32:44;;;;;;;12.75;4.30;;;;;;;;;;4994765;28;20033;-66
2022/11/16 15:35:19;;;;;;;16.02;5.13;;;;;;;;;;4986285;28;20044;-65
2022/11/16 15:38:01;;;;;;;16.73;5.43;;;;;;;;;;4976397;28;20119;-66
2022/11/16 15:40:27;;;;;;;16.13;6.07;;;;;;;;;;4974548;28;20045;-67
2022/11/16 15:42:52;;;;;;;13.75;4.22;;;;;;;;;;4977038;28;20068;-66
2022/11/16 15:45:21;;;;;;;16.27;5.95;;;;;;;;;;4977094;28;20064;-68